Ullin, Illinois
Current Conditions -  °F | °C
As of 8:55 AM on Wednesday 26 Nov 2014 (Local Time) from KCIR Reporting Station
Clear Clear  
Wind Chill: 32°   Ceiling: Unl
Heat Index: 37°   Visibility: 7mi
Dew Point: 33°   Wind: 6mph
Humidity: 88%   Direction: 90°E
Pressure: 30.12"   Gusts: NA
Location:  37.28°N, 89.18°W
Report Text: KCIR 261455Z AUTO 09005KT 7SM CLR 03/01 A3012 RMK AO2 T00250007
Loading
Personal Weather Stations






























Interactive Weather Map New forecast layout! Learn more

10-Day Weather Forecast

Advertisements
Track Severe Weather on mobile